sensor_id;sensor_type;location;lat;lon;timestamp;P1;durP1;ratioP1;P2;durP2;ratioP2
17451;SDS011;8843;48.838;9.324;2023-02-24T00:01:40;16.10;;;11.23;;
17451;SDS011;8843;48.838;9.324;2023-02-24T00:04:08;17.97;;;10.43;;
17451;SDS011;8843;48.838;9.324;2023-02-24T00:06:38;17.63;;;11.57;;
17451;SDS011;8843;48.838;9.324;2023-02-24T00:09:08;14.23;;;11.30;;
17451;SDS011;8843;48.838;9.324;2023-02-24T00:11:40;18.37;;;11.67;;
17451;SDS011;8843;48.838;9.324;2023-02-24T00:14:09;17.73;;;10.97;;
17451;SDS011;8843;48.838;9.324;2023-02-24T00:16:40;18.90;;;12.23;;
17451;SDS011;8843;48.838;9.324;2023-02-24T00:19:06;15.77;;;11.60;;
17451;SDS011;8843;48.838;9.324;2023-02-24T00:21:34;13.33;;;9.50;;
17451;SDS011;8843;48.838;9.324;2023-02-24T00:24:02;18.43;;;11.33;;
17451;SDS011;8843;48.838;9.324;2023-02-24T00:26:30;17.70;;;11.40;;
17451;SDS011;8843;48.838;9.324;2023-02-24T00:28:58;18.83;;;11.93;;
17451;SDS011;8843;48.838;9.324;2023-02-24T00:31:28;18.93;;;11.53;;
17451;SDS011;8843;48.838;9.324;2023-02-24T00:33:55;18.20;;;10.73;;
17451;SDS011;8843;48.838;9.324;2023-02-24T00:36:23;18.30;;;11.70;;
17451;SDS011;8843;48.838;9.324;2023-02-24T00:38:51;18.13;;;12.17;;
17451;SDS011;8843;48.838;9.324;2023-02-24T00:41:23;20.20;;;10.87;;
17451;SDS011;8843;48.838;9.324;2023-02-24T00:43:53;17.47;;;10.93;;
17451;SDS011;8843;48.838;9.324;2023-02-24T00:46:21;16.60;;;11.43;;
17451;SDS011;8843;48.838;9.324;2023-02-24T00:48:50;16.67;;;11.00;;
17451;SDS011;8843;48.838;9.324;2023-02-24T00:51:20;18.17;;;11.83;;
17451;SDS011;8843;48.838;9.324;2023-02-24T00:53:49;18.83;;;12.13;;
17451;SDS011;8843;48.838;9.324;2023-02-24T00:56:20;17.07;;;10.93;;
17451;SDS011;8843;48.838;9.324;2023-02-24T00:58:49;16.20;;;11.23;;
17451;SDS011;8843;48.838;9.324;2023-02-24T01:01:18;14.77;;;11.00;;
17451;SDS011;8843;48.838;9.324;2023-02-24T01:03:47;18.67;;;10.93;;
17451;SDS011;8843;48.838;9.324;2023-02-24T01:06:15;18.43;;;12.43;;
17451;SDS011;8843;48.838;9.324;2023-02-24T01:08:44;17.73;;;12.10;;
17451;SDS011;8843;48.838;9.324;2023-02-24T01:11:13;13.10;;;8.83;;
17451;SDS011;8843;48.838;9.324;2023-02-24T01:14:02;16.73;;;11.40;;
17451;SDS011;8843;48.838;9.324;2023-02-24T01:16:29;18.77;;;12.33;;
17451;SDS011;8843;48.838;9.324;2023-02-24T01:18:56;21.77;;;13.20;;
17451;SDS011;8843;48.838;9.324;2023-02-24T01:21:23;19.90;;;11.77;;
17451;SDS011;8843;48.838;9.324;2023-02-24T01:23:50;18.43;;;12.03;;
17451;SDS011;8843;48.838;9.324;2023-02-24T01:26:17;17.43;;;12.87;;
17451;SDS011;8843;48.838;9.324;2023-02-24T01:28:45;18.17;;;13.17;;
17451;SDS011;8843;48.838;9.324;2023-02-24T01:31:14;21.27;;;12.27;;
17451;SDS011;8843;48.838;9.324;2023-02-24T01:33:43;20.60;;;12.80;;
17451;SDS011;8843;48.838;9.324;2023-02-24T01:36:11;16.83;;;12.50;;
17451;SDS011;8843;48.838;9.324;2023-02-24T01:38:39;20.47;;;12.77;;
17451;SDS011;8843;48.838;9.324;2023-02-24T01:41:08;21.10;;;14.17;;
17451;SDS011;8843;48.838;9.324;2023-02-24T01:43:54;19.97;;;13.03;;
17451;SDS011;8843;48.838;9.324;2023-02-24T01:46:25;13.97;;;10.63;;
17451;SDS011;8843;48.838;9.324;2023-02-24T01:48:52;19.53;;;13.53;;
17451;SDS011;8843;48.838;9.324;2023-02-24T01:51:23;18.97;;;12.77;;
17451;SDS011;8843;48.838;9.324;2023-02-24T01:53:54;20.53;;;14.17;;
17451;SDS011;8843;48.838;9.324;2023-02-24T01:56:21;21.03;;;14.00;;
17451;SDS011;8843;48.838;9.324;2023-02-24T01:58:48;17.00;;;12.33;;
17451;SDS011;8843;48.838;9.324;2023-02-24T02:01:15;19.13;;;12.37;;
17451;SDS011;8843;48.838;9.324;2023-02-24T02:03:45;18.43;;;11.90;;
17451;SDS011;8843;48.838;9.324;2023-02-24T02:06:13;15.90;;;11.53;;
17451;SDS011;8843;48.838;9.324;2023-02-24T02:08:42;19.23;;;13.93;;
17451;SDS011;8843;48.838;9.324;2023-02-24T02:11:10;17.83;;;12.80;;
17451;SDS011;8843;48.838;9.324;2023-02-24T02:13:39;16.27;;;12.40;;
17451;SDS011;8843;48.838;9.324;2023-02-24T02:16:12;17.47;;;12.67;;
17451;SDS011;8843;48.838;9.324;2023-02-24T02:18:53;17.57;;;12.47;;
17451;SDS011;8843;48.838;9.324;2023-02-24T02:21:53;15.07;;;10.87;;
17451;SDS011;8843;48.838;9.324;2023-02-24T02:24:45;20.53;;;12.00;;
17451;SDS011;8843;48.838;9.324;2023-02-24T02:27:34;17.43;;;11.17;;
17451;SDS011;8843;48.838;9.324;2023-02-24T02:30:33;19.50;;;11.83;;
17451;SDS011;8843;48.838;9.324;2023-02-24T02:33:27;18.67;;;11.97;;
17451;SDS011;8843;48.838;9.324;2023-02-24T02:36:18;18.17;;;12.83;;
17451;SDS011;8843;48.838;9.324;2023-02-24T02:38:52;18.23;;;11.30;;
17451;SDS011;8843;48.838;9.324;2023-02-24T02:41:28;16.07;;;12.03;;
17451;SDS011;8843;48.838;9.324;2023-02-24T02:44:06;18.73;;;13.00;;
17451;SDS011;8843;48.838;9.324;2023-02-24T02:46:37;17.73;;;13.13;;
17451;SDS011;8843;48.838;9.324;2023-02-24T02:49:12;22.20;;;13.97;;
17451;SDS011;8843;48.838;9.324;2023-02-24T02:51:43;20.10;;;14.00;;
17451;SDS011;8843;48.838;9.324;2023-02-24T02:54:16;17.97;;;13.10;;
17451;SDS011;8843;48.838;9.324;2023-02-24T02:56:47;21.60;;;12.33;;
17451;SDS011;8843;48.838;9.324;2023-02-24T02:59:19;19.23;;;13.43;;
17451;SDS011;8843;48.838;9.324;2023-02-24T03:01:49;17.17;;;12.53;;
17451;SDS011;8843;48.838;9.324;2023-02-24T03:04:25;20.80;;;14.63;;
17451;SDS011;8843;48.838;9.324;2023-02-24T03:06:56;21.23;;;13.73;;
17451;SDS011;8843;48.838;9.324;2023-02-24T03:09:27;20.60;;;13.73;;
17451;SDS011;8843;48.838;9.324;2023-02-24T03:11:56;22.13;;;13.60;;
17451;SDS011;8843;48.838;9.324;2023-02-24T03:14:28;19.77;;;14.23;;
17451;SDS011;8843;48.838;9.324;2023-02-24T03:16:59;20.73;;;13.47;;
17451;SDS011;8843;48.838;9.324;2023-02-24T03:19:29;21.87;;;14.10;;
17451;SDS011;8843;48.838;9.324;2023-02-24T03:22:03;21.77;;;13.63;;
17451;SDS011;8843;48.838;9.324;2023-02-24T03:24:36;19.27;;;12.87;;
17451;SDS011;8843;48.838;9.324;2023-02-24T03:27:05;23.33;;;13.43;;
17451;SDS011;8843;48.838;9.324;2023-02-24T03:29:36;20.17;;;13.43;;
17451;SDS011;8843;48.838;9.324;2023-02-24T03:32:11;19.77;;;13.13;;
17451;SDS011;8843;48.838;9.324;2023-02-24T03:34:45;19.27;;;12.07;;
17451;SDS011;8843;48.838;9.324;2023-02-24T03:37:17;13.03;;;9.60;;
17451;SDS011;8843;48.838;9.324;2023-02-24T03:39:50;22.63;;;13.93;;
17451;SDS011;8843;48.838;9.324;2023-02-24T03:42:18;20.03;;;14.13;;
17451;SDS011;8843;48.838;9.324;2023-02-24T03:44:46;21.53;;;12.93;;
17451;SDS011;8843;48.838;9.324;2023-02-24T03:47:14;17.13;;;12.03;;
17451;SDS011;8843;48.838;9.324;2023-02-24T03:49:44;16.43;;;10.23;;
17451;SDS011;8843;48.838;9.324;2023-02-24T03:52:14;18.90;;;13.07;;
17451;SDS011;8843;48.838;9.324;2023-02-24T03:55:09;19.93;;;12.97;;
17451;SDS011;8843;48.838;9.324;2023-02-24T03:57:48;20.87;;;14.10;;
17451;SDS011;8843;48.838;9.324;2023-02-24T04:00:27;21.07;;;12.73;;
17451;SDS011;8843;48.838;9.324;2023-02-24T04:03:02;21.60;;;14.40;;
17451;SDS011;8843;48.838;9.324;2023-02-24T04:05:41;20.70;;;14.17;;
17451;SDS011;8843;48.838;9.324;2023-02-24T04:08:17;20.77;;;13.30;;
17451;SDS011;8843;48.838;9.324;2023-02-24T04:10:48;20.83;;;13.33;;
17451;SDS011;8843;48.838;9.324;2023-02-24T04:13:20;20.60;;;13.70;;
17451;SDS011;8843;48.838;9.324;2023-02-24T04:15:58;18.03;;;12.17;;
17451;SDS011;8843;48.838;9.324;2023-02-24T04:18:28;19.47;;;14.40;;
17451;SDS011;8843;48.838;9.324;2023-02-24T04:20:57;22.43;;;14.40;;
17451;SDS011;8843;48.838;9.324;2023-02-24T04:23:30;22.17;;;15.40;;
17451;SDS011;8843;48.838;9.324;2023-02-24T04:25:58;21.03;;;13.87;;
17451;SDS011;8843;48.838;9.324;2023-02-24T04:28:27;12.47;;;9.30;;
17451;SDS011;8843;48.838;9.324;2023-02-24T04:30:56;23.87;;;13.80;;
17451;SDS011;8843;48.838;9.324;2023-02-24T04:33:29;17.87;;;11.60;;
17451;SDS011;8843;48.838;9.324;2023-02-24T04:35:57;19.90;;;13.73;;
17451;SDS011;8843;48.838;9.324;2023-02-24T04:38:23;23.10;;;14.20;;
17451;SDS011;8843;48.838;9.324;2023-02-24T04:40:52;20.77;;;14.43;;
17451;SDS011;8843;48.838;9.324;2023-02-24T04:43:19;25.43;;;13.87;;
17451;SDS011;8843;48.838;9.324;2023-02-24T04:45:46;23.50;;;14.37;;
17451;SDS011;8843;48.838;9.324;2023-02-24T04:48:15;25.53;;;15.47;;
17451;SDS011;8843;48.838;9.324;2023-02-24T04:50:44;18.53;;;12.40;;
17451;SDS011;8843;48.838;9.324;2023-02-24T04:53:13;22.40;;;13.80;;
17451;SDS011;8843;48.838;9.324;2023-02-24T04:55:42;22.47;;;13.47;;
17451;SDS011;8843;48.838;9.324;2023-02-24T04:58:14;20.30;;;13.50;;
17451;SDS011;8843;48.838;9.324;2023-02-24T05:00:43;23.07;;;15.47;;
17451;SDS011;8843;48.838;9.324;2023-02-24T05:03:13;22.03;;;14.93;;
17451;SDS011;8843;48.838;9.324;2023-02-24T05:05:46;18.43;;;13.33;;
17451;SDS011;8843;48.838;9.324;2023-02-24T05:08:16;21.70;;;13.93;;
17451;SDS011;8843;48.838;9.324;2023-02-24T05:10:44;26.47;;;14.43;;
17451;SDS011;8843;48.838;9.324;2023-02-24T05:13:14;25.47;;;13.80;;
17451;SDS011;8843;48.838;9.324;2023-02-24T05:15:42;23.73;;;14.87;;
17451;SDS011;8843;48.838;9.324;2023-02-24T05:18:11;25.63;;;15.73;;
17451;SDS011;8843;48.838;9.324;2023-02-24T05:20:41;25.53;;;15.50;;
17451;SDS011;8843;48.838;9.324;2023-02-24T05:23:28;17.60;;;12.47;;
17451;SDS011;8843;48.838;9.324;2023-02-24T05:25:58;20.03;;;12.93;;
17451;SDS011;8843;48.838;9.324;2023-02-24T05:28:26;22.47;;;14.87;;
17451;SDS011;8843;48.838;9.324;2023-02-24T05:31:02;23.13;;;15.73;;
17451;SDS011;8843;48.838;9.324;2023-02-24T05:33:32;26.47;;;15.50;;
17451;SDS011;8843;48.838;9.324;2023-02-24T05:36:01;24.23;;;14.87;;
17451;SDS011;8843;48.838;9.324;2023-02-24T05:38:28;27.17;;;15.33;;
17451;SDS011;8843;48.838;9.324;2023-02-24T05:41:02;28.93;;;16.63;;
17451;SDS011;8843;48.838;9.324;2023-02-24T05:43:32;25.10;;;16.70;;
17451;SDS011;8843;48.838;9.324;2023-02-24T05:46:00;25.20;;;15.13;;
17451;SDS011;8843;48.838;9.324;2023-02-24T05:48:28;25.97;;;16.07;;
17451;SDS011;8843;48.838;9.324;2023-02-24T05:50:59;28.07;;;16.43;;
17451;SDS011;8843;48.838;9.324;2023-02-24T05:53:26;27.23;;;17.30;;
17451;SDS011;8843;48.838;9.324;2023-02-24T05:55:53;31.90;;;19.27;;
17451;SDS011;8843;48.838;9.324;2023-02-24T05:58:20;31.20;;;18.67;;
17451;SDS011;8843;48.838;9.324;2023-02-24T06:00:49;26.87;;;17.07;;
17451;SDS011;8843;48.838;9.324;2023-02-24T06:03:16;28.40;;;18.03;;
17451;SDS011;8843;48.838;9.324;2023-02-24T06:05:54;31.10;;;19.80;;
17451;SDS011;8843;48.838;9.324;2023-02-24T06:08:29;32.87;;;19.73;;
17451;SDS011;8843;48.838;9.324;2023-02-24T06:11:06;30.60;;;19.10;;
17451;SDS011;8843;48.838;9.324;2023-02-24T06:13:34;30.13;;;19.00;;
17451;SDS011;8843;48.838;9.324;2023-02-24T06:16:03;33.07;;;19.33;;
17451;SDS011;8843;48.838;9.324;2023-02-24T06:18:30;35.67;;;20.73;;
17451;SDS011;8843;48.838;9.324;2023-02-24T06:20:59;37.10;;;20.53;;
17451;SDS011;8843;48.838;9.324;2023-02-24T06:23:26;33.90;;;21.00;;
17451;SDS011;8843;48.838;9.324;2023-02-24T06:25:53;35.50;;;21.47;;
17451;SDS011;8843;48.838;9.324;2023-02-24T06:28:22;27.10;;;17.77;;
17451;SDS011;8843;48.838;9.324;2023-02-24T06:30:49;32.80;;;20.43;;
17451;SDS011;8843;48.838;9.324;2023-02-24T06:33:17;31.87;;;19.90;;
17451;SDS011;8843;48.838;9.324;2023-02-24T06:35:46;32.30;;;20.43;;
17451;SDS011;8843;48.838;9.324;2023-02-24T06:38:13;35.73;;;20.90;;
17451;SDS011;8843;48.838;9.324;2023-02-24T06:40:40;28.93;;;16.60;;
17451;SDS011;8843;48.838;9.324;2023-02-24T06:43:07;39.57;;;21.17;;
17451;SDS011;8843;48.838;9.324;2023-02-24T06:45:35;36.67;;;21.00;;
17451;SDS011;8843;48.838;9.324;2023-02-24T06:48:02;26.73;;;17.50;;
17451;SDS011;8843;48.838;9.324;2023-02-24T06:50:30;39.77;;;19.83;;
17451;SDS011;8843;48.838;9.324;2023-02-24T06:52:57;40.67;;;22.13;;
17451;SDS011;8843;48.838;9.324;2023-02-24T06:55:24;38.77;;;22.70;;
17451;SDS011;8843;48.838;9.324;2023-02-24T06:57:52;39.97;;;22.17;;
17451;SDS011;8843;48.838;9.324;2023-02-24T07:00:23;37.60;;;21.03;;
17451;SDS011;8843;48.838;9.324;2023-02-24T07:03:01;34.67;;;20.63;;
17451;SDS011;8843;48.838;9.324;2023-02-24T07:05:40;34.47;;;19.70;;
17451;SDS011;8843;48.838;9.324;2023-02-24T07:08:14;36.63;;;21.13;;
17451;SDS011;8843;48.838;9.324;2023-02-24T07:10:42;39.10;;;22.60;;
17451;SDS011;8843;48.838;9.324;2023-02-24T07:13:09;40.83;;;23.37;;
17451;SDS011;8843;48.838;9.324;2023-02-24T07:15:37;42.70;;;22.53;;
17451;SDS011;8843;48.838;9.324;2023-02-24T07:18:04;47.17;;;23.13;;
17451;SDS011;8843;48.838;9.324;2023-02-24T07:20:40;36.77;;;20.93;;
17451;SDS011;8843;48.838;9.324;2023-02-24T07:23:10;42.33;;;22.60;;
17451;SDS011;8843;48.838;9.324;2023-02-24T07:25:37;37.80;;;21.93;;
17451;SDS011;8843;48.838;9.324;2023-02-24T07:28:05;41.97;;;23.60;;
17451;SDS011;8843;48.838;9.324;2023-02-24T07:30:32;36.53;;;19.73;;
17451;SDS011;8843;48.838;9.324;2023-02-24T07:33:01;40.40;;;21.60;;
17451;SDS011;8843;48.838;9.324;2023-02-24T07:35:28;46.03;;;25.97;;
17451;SDS011;8843;48.838;9.324;2023-02-24T07:37:57;45.17;;;25.70;;
17451;SDS011;8843;48.838;9.324;2023-02-24T07:40:26;49.10;;;27.53;;
17451;SDS011;8843;48.838;9.324;2023-02-24T07:42:53;44.33;;;27.70;;
17451;SDS011;8843;48.838;9.324;2023-02-24T07:45:21;46.90;;;28.50;;
17451;SDS011;8843;48.838;9.324;2023-02-24T07:47:48;45.13;;;27.33;;
17451;SDS011;8843;48.838;9.324;2023-02-24T07:50:15;46.70;;;26.67;;
17451;SDS011;8843;48.838;9.324;2023-02-24T07:52:43;45.93;;;26.63;;
17451;SDS011;8843;48.838;9.324;2023-02-24T07:55:13;48.37;;;27.37;;
17451;SDS011;8843;48.838;9.324;2023-02-24T07:57:41;38.97;;;20.37;;
17451;SDS011;8843;48.838;9.324;2023-02-24T08:00:11;45.63;;;23.37;;
17451;SDS011;8843;48.838;9.324;2023-02-24T08:02:44;51.00;;;23.07;;
17451;SDS011;8843;48.838;9.324;2023-02-24T08:05:12;44.33;;;22.30;;
17451;SDS011;8843;48.838;9.324;2023-02-24T08:07:39;47.53;;;22.60;;
17451;SDS011;8843;48.838;9.324;2023-02-24T08:10:07;48.97;;;23.97;;
17451;SDS011;8843;48.838;9.324;2023-02-24T08:12:39;43.47;;;21.47;;
17451;SDS011;8843;48.838;9.324;2023-02-24T08:15:11;42.60;;;22.27;;
17451;SDS011;8843;48.838;9.324;2023-02-24T08:17:48;44.93;;;24.67;;
17451;SDS011;8843;48.838;9.324;2023-02-24T08:20:17;42.87;;;22.67;;
17451;SDS011;8843;48.838;9.324;2023-02-24T08:22:49;45.43;;;21.43;;
17451;SDS011;8843;48.838;9.324;2023-02-24T08:25:18;44.13;;;22.03;;
17451;SDS011;8843;48.838;9.324;2023-02-24T08:27:49;42.50;;;22.00;;
17451;SDS011;8843;48.838;9.324;2023-02-24T08:30:23;41.83;;;23.17;;
17451;SDS011;8843;48.838;9.324;2023-02-24T08:32:54;38.97;;;21.77;;
17451;SDS011;8843;48.838;9.324;2023-02-24T08:35:24;45.30;;;21.80;;
17451;SDS011;8843;48.838;9.324;2023-02-24T08:37:56;41.80;;;22.23;;
17451;SDS011;8843;48.838;9.324;2023-02-24T08:40:29;41.70;;;22.10;;
17451;SDS011;8843;48.838;9.324;2023-02-24T08:43:16;40.70;;;20.70;;
17451;SDS011;8843;48.838;9.324;2023-02-24T08:45:56;43.53;;;21.83;;
17451;SDS011;8843;48.838;9.324;2023-02-24T08:48:25;41.50;;;22.60;;
17451;SDS011;8843;48.838;9.324;2023-02-24T08:51:02;43.80;;;20.87;;
17451;SDS011;8843;48.838;9.324;2023-02-24T08:53:31;42.20;;;21.20;;
17451;SDS011;8843;48.838;9.324;2023-02-24T08:56:00;40.23;;;20.97;;
17451;SDS011;8843;48.838;9.324;2023-02-24T08:58:34;42.57;;;22.47;;
17451;SDS011;8843;48.838;9.324;2023-02-24T09:01:05;40.77;;;22.57;;
17451;SDS011;8843;48.838;9.324;2023-02-24T09:03:43;45.60;;;22.80;;
17451;SDS011;8843;48.838;9.324;2023-02-24T09:06:11;43.70;;;22.23;;
17451;SDS011;8843;48.838;9.324;2023-02-24T09:08:41;38.67;;;21.53;;
17451;SDS011;8843;48.838;9.324;2023-02-24T09:11:11;43.50;;;21.10;;
17451;SDS011;8843;48.838;9.324;2023-02-24T09:13:40;44.23;;;22.97;;
17451;SDS011;8843;48.838;9.324;2023-02-24T09:16:16;43.80;;;20.97;;
17451;SDS011;8843;48.838;9.324;2023-02-24T09:18:44;48.37;;;22.80;;
17451;SDS011;8843;48.838;9.324;2023-02-24T09:21:31;45.73;;;21.70;;
17451;SDS011;8843;48.838;9.324;2023-02-24T09:24:30;47.37;;;23.43;;
17451;SDS011;8843;48.838;9.324;2023-02-24T09:26:57;43.77;;;22.50;;
17451;SDS011;8843;48.838;9.324;2023-02-24T09:29:25;39.43;;;21.30;;
17451;SDS011;8843;48.838;9.324;2023-02-24T09:31:59;38.07;;;20.73;;
17451;SDS011;8843;48.838;9.324;2023-02-24T09:34:30;44.43;;;21.80;;
17451;SDS011;8843;48.838;9.324;2023-02-24T09:36:58;40.37;;;20.90;;
17451;SDS011;8843;48.838;9.324;2023-02-24T09:39:28;42.27;;;21.87;;
17451;SDS011;8843;48.838;9.324;2023-02-24T09:42:17;48.00;;;22.50;;
17451;SDS011;8843;48.838;9.324;2023-02-24T09:45:00;43.73;;;21.50;;
17451;SDS011;8843;48.838;9.324;2023-02-24T09:47:31;42.07;;;21.60;;
17451;SDS011;8843;48.838;9.324;2023-02-24T09:50:16;45.80;;;22.63;;
17451;SDS011;8843;48.838;9.324;2023-02-24T09:52:55;47.80;;;23.23;;
17451;SDS011;8843;48.838;9.324;2023-02-24T09:55:39;39.90;;;20.40;;
17451;SDS011;8843;48.838;9.324;2023-02-24T09:58:26;43.10;;;21.63;;
17451;SDS011;8843;48.838;9.324;2023-02-24T10:01:00;41.83;;;21.07;;
17451;SDS011;8843;48.838;9.324;2023-02-24T10:03:45;47.23;;;22.20;;
17451;SDS011;8843;48.838;9.324;2023-02-24T10:06:18;44.70;;;21.70;;
17451;SDS011;8843;48.838;9.324;2023-02-24T10:08:49;43.63;;;20.07;;
17451;SDS011;8843;48.838;9.324;2023-02-24T10:11:19;46.27;;;21.73;;
17451;SDS011;8843;48.838;9.324;2023-02-24T10:13:57;49.40;;;22.60;;
17451;SDS011;8843;48.838;9.324;2023-02-24T10:16:31;43.10;;;21.73;;
17451;SDS011;8843;48.838;9.324;2023-02-24T10:19:10;43.80;;;22.97;;
17451;SDS011;8843;48.838;9.324;2023-02-24T10:21:49;40.67;;;20.17;;
17451;SDS011;8843;48.838;9.324;2023-02-24T10:24:28;43.57;;;21.67;;
17451;SDS011;8843;48.838;9.324;2023-02-24T10:27:00;42.03;;;20.00;;
17451;SDS011;8843;48.838;9.324;2023-02-24T10:29:41;40.43;;;19.77;;
17451;SDS011;8843;48.838;9.324;2023-02-24T10:32:22;38.93;;;19.70;;
17451;SDS011;8843;48.838;9.324;2023-02-24T10:34:58;40.63;;;19.33;;
17451;SDS011;8843;48.838;9.324;2023-02-24T10:37:25;41.90;;;18.57;;
17451;SDS011;8843;48.838;9.324;2023-02-24T10:39:54;39.13;;;19.23;;
17451;SDS011;8843;48.838;9.324;2023-02-24T10:42:23;31.17;;;16.43;;
17451;SDS011;8843;48.838;9.324;2023-02-24T10:45:02;35.20;;;17.07;;
17451;SDS011;8843;48.838;9.324;2023-02-24T10:47:37;31.17;;;16.03;;
17451;SDS011;8843;48.838;9.324;2023-02-24T10:50:17;28.50;;;14.73;;
17451;SDS011;8843;48.838;9.324;2023-02-24T10:52:47;33.00;;;15.00;;
17451;SDS011;8843;48.838;9.324;2023-02-24T10:55:37;33.90;;;15.23;;
17451;SDS011;8843;48.838;9.324;2023-02-24T10:58:26;30.07;;;15.83;;
17451;SDS011;8843;48.838;9.324;2023-02-24T11:01:06;33.83;;;17.50;;
17451;SDS011;8843;48.838;9.324;2023-02-24T11:03:47;38.57;;;17.20;;
17451;SDS011;8843;48.838;9.324;2023-02-24T11:06:26;36.90;;;17.93;;
17451;SDS011;8843;48.838;9.324;2023-02-24T11:09:17;41.40;;;17.33;;
17451;SDS011;8843;48.838;9.324;2023-02-24T11:11:57;37.97;;;17.53;;
17451;SDS011;8843;48.838;9.324;2023-02-24T11:14:48;41.17;;;18.23;;
17451;SDS011;8843;48.838;9.324;2023-02-24T11:17:35;41.33;;;19.83;;
17451;SDS011;8843;48.838;9.324;2023-02-24T11:20:04;46.50;;;19.43;;
17451;SDS011;8843;48.838;9.324;2023-02-24T11:22:42;37.07;;;18.43;;
17451;SDS011;8843;48.838;9.324;2023-02-24T11:25:12;46.23;;;20.70;;
17451;SDS011;8843;48.838;9.324;2023-02-24T11:27:48;45.30;;;20.70;;
17451;SDS011;8843;48.838;9.324;2023-02-24T11:30:19;46.50;;;20.70;;
17451;SDS011;8843;48.838;9.324;2023-02-24T11:33:07;45.97;;;18.70;;
17451;SDS011;8843;48.838;9.324;2023-02-24T11:35:45;48.30;;;20.23;;
17451;SDS011;8843;48.838;9.324;2023-02-24T11:38:24;42.33;;;18.43;;
17451;SDS011;8843;48.838;9.324;2023-02-24T11:41:01;43.47;;;19.30;;
17451;SDS011;8843;48.838;9.324;2023-02-24T11:43:32;47.27;;;20.53;;
17451;SDS011;8843;48.838;9.324;2023-02-24T11:46:03;44.43;;;20.13;;
17451;SDS011;8843;48.838;9.324;2023-02-24T11:48:35;39.87;;;18.33;;
17451;SDS011;8843;48.838;9.324;2023-02-24T11:51:06;40.30;;;19.37;;
17451;SDS011;8843;48.838;9.324;2023-02-24T11:53:39;48.40;;;19.63;;
17451;SDS011;8843;48.838;9.324;2023-02-24T11:56:12;47.53;;;19.67;;
17451;SDS011;8843;48.838;9.324;2023-02-24T11:58:44;43.57;;;20.70;;
17451;SDS011;8843;48.838;9.324;2023-02-24T12:01:18;49.83;;;20.43;;
17451;SDS011;8843;48.838;9.324;2023-02-24T12:03:52;44.00;;;19.37;;
17451;SDS011;8843;48.838;9.324;2023-02-24T12:06:27;45.50;;;19.47;;
17451;SDS011;8843;48.838;9.324;2023-02-24T12:09:00;46.53;;;20.07;;
17451;SDS011;8843;48.838;9.324;2023-02-24T12:11:37;41.33;;;18.07;;
17451;SDS011;8843;48.838;9.324;2023-02-24T12:14:14;38.97;;;18.03;;
17451;SDS011;8843;48.838;9.324;2023-02-24T12:16:51;41.17;;;20.27;;
17451;SDS011;8843;48.838;9.324;2023-02-24T12:19:26;49.87;;;19.23;;
17451;SDS011;8843;48.838;9.324;2023-02-24T12:22:00;42.07;;;19.03;;
17451;SDS011;8843;48.838;9.324;2023-02-24T12:24:31;40.90;;;19.63;;
17451;SDS011;8843;48.838;9.324;2023-02-24T12:27:01;56.30;;;22.40;;
17451;SDS011;8843;48.838;9.324;2023-02-24T12:29:40;45.50;;;20.10;;
17451;SDS011;8843;48.838;9.324;2023-02-24T12:32:20;46.37;;;20.57;;
17451;SDS011;8843;48.838;9.324;2023-02-24T12:34:58;40.40;;;17.37;;
17451;SDS011;8843;48.838;9.324;2023-02-24T12:37:40;45.93;;;19.17;;
17451;SDS011;8843;48.838;9.324;2023-02-24T12:40:26;47.90;;;19.00;;
17451;SDS011;8843;48.838;9.324;2023-02-24T12:43:03;46.97;;;19.80;;
17451;SDS011;8843;48.838;9.324;2023-02-24T12:45:41;46.47;;;20.03;;
17451;SDS011;8843;48.838;9.324;2023-02-24T12:48:22;50.63;;;20.67;;
17451;SDS011;8843;48.838;9.324;2023-02-24T12:50:58;48.07;;;20.40;;
17451;SDS011;8843;48.838;9.324;2023-02-24T12:53:34;45.17;;;19.40;;
17451;SDS011;8843;48.838;9.324;2023-02-24T12:56:06;44.53;;;19.80;;
17451;SDS011;8843;48.838;9.324;2023-02-24T12:58:41;54.07;;;22.10;;
17451;SDS011;8843;48.838;9.324;2023-02-24T13:01:12;41.97;;;18.40;;
17451;SDS011;8843;48.838;9.324;2023-02-24T13:06:36;49.33;;;19.87;;
17451;SDS011;8843;48.838;9.324;2023-02-24T13:09:16;41.67;;;18.57;;
17451;SDS011;8843;48.838;9.324;2023-02-24T13:11:53;43.10;;;18.60;;
17451;SDS011;8843;48.838;9.324;2023-02-24T13:14:29;35.47;;;16.80;;
17451;SDS011;8843;48.838;9.324;2023-02-24T13:17:05;41.07;;;17.80;;
17451;SDS011;8843;48.838;9.324;2023-02-24T13:19:44;38.17;;;17.33;;
17451;SDS011;8843;48.838;9.324;2023-02-24T13:25:13;39.20;;;18.30;;
17451;SDS011;8843;48.838;9.324;2023-02-24T13:27:52;38.77;;;17.27;;
17451;SDS011;8843;48.838;9.324;2023-02-24T13:30:24;39.67;;;17.10;;
17451;SDS011;8843;48.838;9.324;2023-02-24T13:32:58;43.37;;;17.40;;
17451;SDS011;8843;48.838;9.324;2023-02-24T13:35:28;46.60;;;19.83;;
17451;SDS011;8843;48.838;9.324;2023-02-24T13:38:06;37.47;;;16.90;;
17451;SDS011;8843;48.838;9.324;2023-02-24T13:40:35;42.13;;;17.77;;
17451;SDS011;8843;48.838;9.324;2023-02-24T13:43:02;41.40;;;17.80;;
17451;SDS011;8843;48.838;9.324;2023-02-24T13:45:30;39.83;;;17.20;;
17451;SDS011;8843;48.838;9.324;2023-02-24T13:48:11;37.37;;;17.63;;
17451;SDS011;8843;48.838;9.324;2023-02-24T13:51:03;39.73;;;18.90;;
17451;SDS011;8843;48.838;9.324;2023-02-24T13:53:54;36.57;;;16.10;;
17451;SDS011;8843;48.838;9.324;2023-02-24T13:56:34;39.57;;;17.80;;
17451;SDS011;8843;48.838;9.324;2023-02-24T13:59:17;44.30;;;18.47;;
17451;SDS011;8843;48.838;9.324;2023-02-24T14:02:01;39.87;;;16.63;;
17451;SDS011;8843;48.838;9.324;2023-02-24T14:04:37;36.93;;;16.37;;
17451;SDS011;8843;48.838;9.324;2023-02-24T14:07:10;37.13;;;17.30;;
17451;SDS011;8843;48.838;9.324;2023-02-24T14:09:43;33.53;;;15.60;;
17451;SDS011;8843;48.838;9.324;2023-02-24T14:12:15;32.33;;;17.10;;
17451;SDS011;8843;48.838;9.324;2023-02-24T14:14:45;34.97;;;16.07;;
17451;SDS011;8843;48.838;9.324;2023-02-24T14:17:21;36.63;;;16.13;;
17451;SDS011;8843;48.838;9.324;2023-02-24T14:19:53;36.20;;;16.80;;
17451;SDS011;8843;48.838;9.324;2023-02-24T14:22:21;31.93;;;16.70;;
17451;SDS011;8843;48.838;9.324;2023-02-24T14:24:48;32.83;;;15.33;;
17451;SDS011;8843;48.838;9.324;2023-02-24T14:27:27;30.80;;;15.57;;
17451;SDS011;8843;48.838;9.324;2023-02-24T14:29:54;35.93;;;15.50;;
17451;SDS011;8843;48.838;9.324;2023-02-24T14:32:21;27.37;;;14.23;;
17451;SDS011;8843;48.838;9.324;2023-02-24T14:34:49;42.27;;;16.40;;
17451;SDS011;8843;48.838;9.324;2023-02-24T14:37:18;38.53;;;17.53;;
17451;SDS011;8843;48.838;9.324;2023-02-24T14:39:49;35.53;;;15.43;;
17451;SDS011;8843;48.838;9.324;2023-02-24T14:42:18;37.27;;;15.77;;
17451;SDS011;8843;48.838;9.324;2023-02-24T14:44:48;28.10;;;13.77;;
17451;SDS011;8843;48.838;9.324;2023-02-24T14:47:17;23.53;;;11.57;;
17451;SDS011;8843;48.838;9.324;2023-02-24T14:49:54;31.43;;;14.60;;
17451;SDS011;8843;48.838;9.324;2023-02-24T14:52:27;27.93;;;13.77;;
17451;SDS011;8843;48.838;9.324;2023-02-24T14:55:00;37.10;;;16.07;;
17451;SDS011;8843;48.838;9.324;2023-02-24T14:57:30;26.63;;;14.70;;
17451;SDS011;8843;48.838;9.324;2023-02-24T15:00:03;24.53;;;13.40;;
17451;SDS011;8843;48.838;9.324;2023-02-24T15:02:38;29.07;;;14.57;;
17451;SDS011;8843;48.838;9.324;2023-02-24T15:05:08;29.93;;;13.93;;
17451;SDS011;8843;48.838;9.324;2023-02-24T15:07:36;29.33;;;14.43;;
17451;SDS011;8843;48.838;9.324;2023-02-24T15:10:04;30.50;;;13.07;;
17451;SDS011;8843;48.838;9.324;2023-02-24T15:12:33;24.37;;;14.27;;
17451;SDS011;8843;48.838;9.324;2023-02-24T15:15:05;26.37;;;12.17;;